sensor_id;sensor_type;location;lat;lon;timestamp;P1;durP1;ratioP1;P2;durP2;ratioP2
15681;SDS011;7941;50.966;6.978;2022-10-24T00:00:05;15.27;;;7.37;;
15681;SDS011;7941;50.966;6.978;2022-10-24T00:02:32;13.13;;;6.70;;
15681;SDS011;7941;50.966;6.978;2022-10-24T00:04:58;11.80;;;6.70;;
15681;SDS011;7941;50.966;6.978;2022-10-24T00:07:24;15.20;;;6.77;;
15681;SDS011;7941;50.966;6.978;2022-10-24T00:09:50;12.87;;;6.63;;
15681;SDS011;7941;50.966;6.978;2022-10-24T00:12:17;12.43;;;6.80;;
15681;SDS011;7941;50.966;6.978;2022-10-24T00:14:44;12.70;;;6.60;;
15681;SDS011;7941;50.966;6.978;2022-10-24T00:17:10;12.60;;;6.23;;
15681;SDS011;7941;50.966;6.978;2022-10-24T00:19:36;13.10;;;6.27;;
15681;SDS011;7941;50.966;6.978;2022-10-24T00:22:02;8.53;;;5.77;;
15681;SDS011;7941;50.966;6.978;2022-10-24T00:24:28;12.57;;;6.60;;
15681;SDS011;7941;50.966;6.978;2022-10-24T00:26:55;15.73;;;6.77;;
15681;SDS011;7941;50.966;6.978;2022-10-24T00:29:21;16.70;;;6.77;;
15681;SDS011;7941;50.966;6.978;2022-10-24T00:31:47;14.60;;;6.63;;
15681;SDS011;7941;50.966;6.978;2022-10-24T00:34:13;9.47;;;5.53;;
15681;SDS011;7941;50.966;6.978;2022-10-24T00:36:40;17.57;;;6.40;;
15681;SDS011;7941;50.966;6.978;2022-10-24T00:39:06;15.70;;;6.03;;
15681;SDS011;7941;50.966;6.978;2022-10-24T00:41:35;9.00;;;6.03;;
15681;SDS011;7941;50.966;6.978;2022-10-24T00:46:38;8.67;;;6.47;;
15681;SDS011;7941;50.966;6.978;2022-10-24T00:49:04;12.87;;;5.83;;
15681;SDS011;7941;50.966;6.978;2022-10-24T00:51:31;14.57;;;8.57;;
15681;SDS011;7941;50.966;6.978;2022-10-24T00:53:59;14.07;;;6.53;;
15681;SDS011;7941;50.966;6.978;2022-10-24T00:56:27;12.20;;;5.70;;
15681;SDS011;7941;50.966;6.978;2022-10-24T00:58:54;12.43;;;5.77;;
15681;SDS011;7941;50.966;6.978;2022-10-24T01:01:23;11.90;;;5.70;;
15681;SDS011;7941;50.966;6.978;2022-10-24T01:03:49;10.63;;;5.43;;
15681;SDS011;7941;50.966;6.978;2022-10-24T01:12:06;11.60;;;5.73;;
15681;SDS011;7941;50.966;6.978;2022-10-24T01:16:50;11.23;;;5.53;;
15681;SDS011;7941;50.966;6.978;2022-10-24T01:21:48;11.30;;;4.73;;
15681;SDS011;7941;50.966;6.978;2022-10-24T01:29:43;11.03;;;4.90;;
15681;SDS011;7941;50.966;6.978;2022-10-24T01:34:47;10.97;;;4.80;;
15681;SDS011;7941;50.966;6.978;2022-10-24T01:38:00;11.93;;;5.10;;
15681;SDS011;7941;50.966;6.978;2022-10-24T01:40:04;10.67;;;5.33;;
15681;SDS011;7941;50.966;6.978;2022-10-24T01:42:31;13.40;;;5.07;;
15681;SDS011;7941;50.966;6.978;2022-10-24T01:45:00;13.77;;;5.47;;
15681;SDS011;7941;50.966;6.978;2022-10-24T01:47:28;11.90;;;5.37;;
15681;SDS011;7941;50.966;6.978;2022-10-24T01:49:57;16.83;;;5.60;;
15681;SDS011;7941;50.966;6.978;2022-10-24T01:52:24;11.00;;;5.23;;
15681;SDS011;7941;50.966;6.978;2022-10-24T01:54:53;13.20;;;5.80;;
15681;SDS011;7941;50.966;6.978;2022-10-24T01:57:19;15.63;;;5.50;;
15681;SDS011;7941;50.966;6.978;2022-10-24T01:59:51;14.77;;;5.97;;
15681;SDS011;7941;50.966;6.978;2022-10-24T02:02:18;12.60;;;5.77;;
15681;SDS011;7941;50.966;6.978;2022-10-24T02:05:01;10.67;;;5.57;;
15681;SDS011;7941;50.966;6.978;2022-10-24T02:07:29;12.00;;;5.27;;
15681;SDS011;7941;50.966;6.978;2022-10-24T02:09:57;12.80;;;5.30;;
15681;SDS011;7941;50.966;6.978;2022-10-24T02:12:25;15.03;;;5.33;;
15681;SDS011;7941;50.966;6.978;2022-10-24T02:14:57;12.27;;;5.83;;
15681;SDS011;7941;50.966;6.978;2022-10-24T02:17:24;13.83;;;5.27;;
15681;SDS011;7941;50.966;6.978;2022-10-24T02:19:50;11.53;;;4.93;;
15681;SDS011;7941;50.966;6.978;2022-10-24T02:22:34;12.43;;;5.00;;
15681;SDS011;7941;50.966;6.978;2022-10-24T02:25:08;11.97;;;4.90;;
15681;SDS011;7941;50.966;6.978;2022-10-24T02:27:39;9.30;;;5.20;;
15681;SDS011;7941;50.966;6.978;2022-10-24T02:30:07;10.77;;;4.77;;
15681;SDS011;7941;50.966;6.978;2022-10-24T02:32:34;10.67;;;5.03;;
15681;SDS011;7941;50.966;6.978;2022-10-24T02:35:02;13.87;;;5.50;;
15681;SDS011;7941;50.966;6.978;2022-10-24T02:37:29;16.30;;;5.50;;
15681;SDS011;7941;50.966;6.978;2022-10-24T02:39:56;11.40;;;5.07;;
15681;SDS011;7941;50.966;6.978;2022-10-24T02:42:25;11.10;;;4.80;;
15681;SDS011;7941;50.966;6.978;2022-10-24T02:44:52;9.67;;;4.40;;
15681;SDS011;7941;50.966;6.978;2022-10-24T02:47:18;7.90;;;4.23;;
15681;SDS011;7941;50.966;6.978;2022-10-24T02:49:45;11.03;;;4.87;;
15681;SDS011;7941;50.966;6.978;2022-10-24T02:52:12;9.13;;;5.50;;
15681;SDS011;7941;50.966;6.978;2022-10-24T02:54:39;13.40;;;5.20;;
15681;SDS011;7941;50.966;6.978;2022-10-24T02:57:05;10.93;;;4.80;;
15681;SDS011;7941;50.966;6.978;2022-10-24T02:59:31;11.93;;;5.03;;
15681;SDS011;7941;50.966;6.978;2022-10-24T03:01:57;13.83;;;5.23;;
15681;SDS011;7941;50.966;6.978;2022-10-24T03:04:23;11.23;;;4.80;;
15681;SDS011;7941;50.966;6.978;2022-10-24T03:06:49;10.97;;;4.77;;
15681;SDS011;7941;50.966;6.978;2022-10-24T03:09:17;12.10;;;4.67;;
15681;SDS011;7941;50.966;6.978;2022-10-24T03:11:43;10.83;;;4.43;;
15681;SDS011;7941;50.966;6.978;2022-10-24T03:14:09;12.27;;;4.93;;
15681;SDS011;7941;50.966;6.978;2022-10-24T03:16:35;10.67;;;4.73;;
15681;SDS011;7941;50.966;6.978;2022-10-24T03:19:01;11.13;;;5.00;;
15681;SDS011;7941;50.966;6.978;2022-10-24T03:21:27;13.97;;;4.93;;
15681;SDS011;7941;50.966;6.978;2022-10-24T03:23:53;10.03;;;4.27;;
15681;SDS011;7941;50.966;6.978;2022-10-24T03:26:20;8.87;;;4.53;;
15681;SDS011;7941;50.966;6.978;2022-10-24T03:28:46;10.00;;;4.33;;
15681;SDS011;7941;50.966;6.978;2022-10-24T03:31:12;12.20;;;5.00;;
15681;SDS011;7941;50.966;6.978;2022-10-24T03:33:38;7.57;;;4.67;;
15681;SDS011;7941;50.966;6.978;2022-10-24T03:36:04;8.53;;;4.77;;
15681;SDS011;7941;50.966;6.978;2022-10-24T03:38:30;11.17;;;4.43;;
15681;SDS011;7941;50.966;6.978;2022-10-24T03:40:56;10.63;;;4.50;;
15681;SDS011;7941;50.966;6.978;2022-10-24T03:43:23;9.97;;;4.37;;
15681;SDS011;7941;50.966;6.978;2022-10-24T03:45:49;12.13;;;4.13;;
15681;SDS011;7941;50.966;6.978;2022-10-24T03:48:15;10.90;;;4.33;;
15681;SDS011;7941;50.966;6.978;2022-10-24T03:50:41;10.47;;;4.30;;
15681;SDS011;7941;50.966;6.978;2022-10-24T03:53:07;7.77;;;3.90;;
15681;SDS011;7941;50.966;6.978;2022-10-24T03:55:34;11.90;;;4.33;;
15681;SDS011;7941;50.966;6.978;2022-10-24T03:58:00;10.07;;;4.07;;
15681;SDS011;7941;50.966;6.978;2022-10-24T04:00:26;8.80;;;3.97;;
15681;SDS011;7941;50.966;6.978;2022-10-24T04:02:53;8.90;;;4.13;;
15681;SDS011;7941;50.966;6.978;2022-10-24T04:05:19;10.33;;;3.97;;
15681;SDS011;7941;50.966;6.978;2022-10-24T04:07:45;11.37;;;4.07;;
15681;SDS011;7941;50.966;6.978;2022-10-24T04:10:11;9.50;;;4.20;;
15681;SDS011;7941;50.966;6.978;2022-10-24T04:12:38;10.60;;;4.40;;
15681;SDS011;7941;50.966;6.978;2022-10-24T04:15:04;8.10;;;4.23;;
15681;SDS011;7941;50.966;6.978;2022-10-24T04:17:30;11.80;;;4.20;;
15681;SDS011;7941;50.966;6.978;2022-10-24T04:19:57;8.37;;;3.90;;
15681;SDS011;7941;50.966;6.978;2022-10-24T04:22:23;10.00;;;3.90;;
15681;SDS011;7941;50.966;6.978;2022-10-24T04:24:49;8.83;;;3.73;;
15681;SDS011;7941;50.966;6.978;2022-10-24T04:27:15;10.03;;;4.47;;
15681;SDS011;7941;50.966;6.978;2022-10-24T04:29:42;5.87;;;3.90;;
15681;SDS011;7941;50.966;6.978;2022-10-24T04:32:08;9.50;;;4.10;;
15681;SDS011;7941;50.966;6.978;2022-10-24T04:34:39;6.03;;;3.30;;
15681;SDS011;7941;50.966;6.978;2022-10-24T04:37:05;10.90;;;3.57;;
15681;SDS011;7941;50.966;6.978;2022-10-24T04:39:31;9.00;;;3.47;;
15681;SDS011;7941;50.966;6.978;2022-10-24T04:41:57;9.17;;;3.20;;
15681;SDS011;7941;50.966;6.978;2022-10-24T04:44:23;9.70;;;3.10;;
15681;SDS011;7941;50.966;6.978;2022-10-24T04:46:51;10.00;;;3.60;;
15681;SDS011;7941;50.966;6.978;2022-10-24T04:49:17;6.17;;;3.17;;
15681;SDS011;7941;50.966;6.978;2022-10-24T04:51:43;7.53;;;3.27;;
15681;SDS011;7941;50.966;6.978;2022-10-24T04:54:09;7.57;;;3.20;;
15681;SDS011;7941;50.966;6.978;2022-10-24T04:56:35;7.37;;;3.60;;
15681;SDS011;7941;50.966;6.978;2022-10-24T04:59:02;7.27;;;3.37;;
15681;SDS011;7941;50.966;6.978;2022-10-24T05:01:28;9.03;;;3.03;;
15681;SDS011;7941;50.966;6.978;2022-10-24T05:03:54;8.37;;;3.37;;
15681;SDS011;7941;50.966;6.978;2022-10-24T05:06:20;11.60;;;3.60;;
15681;SDS011;7941;50.966;6.978;2022-10-24T05:08:47;6.00;;;2.97;;
15681;SDS011;7941;50.966;6.978;2022-10-24T05:11:13;4.93;;;2.60;;
15681;SDS011;7941;50.966;6.978;2022-10-24T05:13:39;7.23;;;2.97;;
15681;SDS011;7941;50.966;6.978;2022-10-24T05:16:06;6.50;;;4.43;;
15681;SDS011;7941;50.966;6.978;2022-10-24T05:18:32;7.67;;;3.10;;
15681;SDS011;7941;50.966;6.978;2022-10-24T05:20:59;8.07;;;2.97;;
15681;SDS011;7941;50.966;6.978;2022-10-24T05:23:25;8.37;;;3.23;;
15681;SDS011;7941;50.966;6.978;2022-10-24T05:25:51;9.20;;;3.37;;
15681;SDS011;7941;50.966;6.978;2022-10-24T05:28:17;8.03;;;3.33;;
15681;SDS011;7941;50.966;6.978;2022-10-24T05:30:44;5.90;;;2.87;;
15681;SDS011;7941;50.966;6.978;2022-10-24T05:33:10;8.07;;;3.03;;
15681;SDS011;7941;50.966;6.978;2022-10-24T05:35:36;7.80;;;3.10;;
15681;SDS011;7941;50.966;6.978;2022-10-24T05:38:03;11.80;;;3.20;;
15681;SDS011;7941;50.966;6.978;2022-10-24T05:40:29;7.67;;;2.57;;
15681;SDS011;7941;50.966;6.978;2022-10-24T05:42:55;10.33;;;2.97;;
15681;SDS011;7941;50.966;6.978;2022-10-24T05:45:22;5.23;;;2.63;;
15681;SDS011;7941;50.966;6.978;2022-10-24T05:47:48;9.07;;;2.70;;
15681;SDS011;7941;50.966;6.978;2022-10-24T05:50:14;6.33;;;2.83;;
15681;SDS011;7941;50.966;6.978;2022-10-24T05:52:40;6.40;;;2.80;;
15681;SDS011;7941;50.966;6.978;2022-10-24T05:55:07;11.37;;;3.07;;
15681;SDS011;7941;50.966;6.978;2022-10-24T05:57:34;5.50;;;2.63;;
15681;SDS011;7941;50.966;6.978;2022-10-24T06:00:01;7.03;;;2.63;;
15681;SDS011;7941;50.966;6.978;2022-10-24T06:02:27;9.53;;;2.60;;
15681;SDS011;7941;50.966;6.978;2022-10-24T06:04:53;5.83;;;3.37;;
15681;SDS011;7941;50.966;6.978;2022-10-24T06:07:21;6.60;;;2.90;;
15681;SDS011;7941;50.966;6.978;2022-10-24T06:09:47;9.33;;;3.20;;
15681;SDS011;7941;50.966;6.978;2022-10-24T06:12:13;8.20;;;3.20;;
15681;SDS011;7941;50.966;6.978;2022-10-24T06:14:40;6.77;;;2.50;;
15681;SDS011;7941;50.966;6.978;2022-10-24T06:17:06;10.33;;;3.23;;
15681;SDS011;7941;50.966;6.978;2022-10-24T06:19:36;4.90;;;3.30;;
15681;SDS011;7941;50.966;6.978;2022-10-24T06:22:03;5.13;;;3.00;;
15681;SDS011;7941;50.966;6.978;2022-10-24T06:24:29;5.87;;;3.10;;
15681;SDS011;7941;50.966;6.978;2022-10-24T06:26:55;6.43;;;2.93;;
15681;SDS011;7941;50.966;6.978;2022-10-24T06:29:21;5.80;;;2.97;;
15681;SDS011;7941;50.966;6.978;2022-10-24T06:31:47;7.40;;;2.20;;
15681;SDS011;7941;50.966;6.978;2022-10-24T06:34:14;7.20;;;2.23;;
15681;SDS011;7941;50.966;6.978;2022-10-24T06:36:40;5.13;;;2.67;;
15681;SDS011;7941;50.966;6.978;2022-10-24T06:39:06;7.00;;;2.80;;
15681;SDS011;7941;50.966;6.978;2022-10-24T06:41:32;7.83;;;3.80;;
15681;SDS011;7941;50.966;6.978;2022-10-24T06:43:58;6.43;;;3.13;;
15681;SDS011;7941;50.966;6.978;2022-10-24T06:46:26;7.33;;;4.13;;
15681;SDS011;7941;50.966;6.978;2022-10-24T06:48:53;6.20;;;3.10;;
15681;SDS011;7941;50.966;6.978;2022-10-24T06:51:20;8.17;;;2.83;;
15681;SDS011;7941;50.966;6.978;2022-10-24T06:53:46;6.63;;;2.40;;
15681;SDS011;7941;50.966;6.978;2022-10-24T06:56:12;6.40;;;3.27;;
15681;SDS011;7941;50.966;6.978;2022-10-24T06:58:38;6.87;;;2.70;;
15681;SDS011;7941;50.966;6.978;2022-10-24T07:01:12;8.97;;;2.93;;
15681;SDS011;7941;50.966;6.978;2022-10-24T07:03:39;8.83;;;2.87;;
15681;SDS011;7941;50.966;6.978;2022-10-24T07:06:09;6.03;;;2.53;;
15681;SDS011;7941;50.966;6.978;2022-10-24T07:08:36;6.27;;;2.53;;
15681;SDS011;7941;50.966;6.978;2022-10-24T07:11:02;6.77;;;2.50;;
15681;SDS011;7941;50.966;6.978;2022-10-24T07:13:28;7.23;;;2.17;;
15681;SDS011;7941;50.966;6.978;2022-10-24T07:15:54;6.57;;;2.70;;
15681;SDS011;7941;50.966;6.978;2022-10-24T07:18:21;3.97;;;1.97;;
15681;SDS011;7941;50.966;6.978;2022-10-24T07:20:47;3.73;;;2.27;;
15681;SDS011;7941;50.966;6.978;2022-10-24T07:23:13;4.83;;;2.30;;
15681;SDS011;7941;50.966;6.978;2022-10-24T07:25:40;4.17;;;2.10;;
15681;SDS011;7941;50.966;6.978;2022-10-24T07:28:07;6.50;;;2.10;;
15681;SDS011;7941;50.966;6.978;2022-10-24T07:30:33;5.57;;;1.90;;
15681;SDS011;7941;50.966;6.978;2022-10-24T07:32:59;2.60;;;1.60;;
15681;SDS011;7941;50.966;6.978;2022-10-24T07:35:25;9.13;;;1.87;;
15681;SDS011;7941;50.966;6.978;2022-10-24T07:37:51;7.97;;;2.17;;
15681;SDS011;7941;50.966;6.978;2022-10-24T07:40:18;3.20;;;1.90;;
15681;SDS011;7941;50.966;6.978;2022-10-24T07:42:44;6.70;;;2.07;;
15681;SDS011;7941;50.966;6.978;2022-10-24T07:45:10;5.77;;;2.10;;
15681;SDS011;7941;50.966;6.978;2022-10-24T07:47:37;4.03;;;1.57;;
15681;SDS011;7941;50.966;6.978;2022-10-24T07:50:03;7.67;;;2.07;;
15681;SDS011;7941;50.966;6.978;2022-10-24T07:52:29;4.13;;;1.90;;
15681;SDS011;7941;50.966;6.978;2022-10-24T07:54:56;5.47;;;1.77;;
15681;SDS011;7941;50.966;6.978;2022-10-24T07:57:22;7.13;;;1.90;;
15681;SDS011;7941;50.966;6.978;2022-10-24T07:59:49;2.87;;;1.60;;
15681;SDS011;7941;50.966;6.978;2022-10-24T08:02:15;4.67;;;1.80;;
15681;SDS011;7941;50.966;6.978;2022-10-24T08:04:41;4.97;;;1.63;;
15681;SDS011;7941;50.966;6.978;2022-10-24T08:07:08;2.57;;;1.50;;
15681;SDS011;7941;50.966;6.978;2022-10-24T08:09:44;4.93;;;1.83;;
15681;SDS011;7941;50.966;6.978;2022-10-24T08:12:11;5.53;;;2.10;;
15681;SDS011;7941;50.966;6.978;2022-10-24T08:14:38;5.23;;;2.30;;
15681;SDS011;7941;50.966;6.978;2022-10-24T08:17:05;9.13;;;2.13;;
15681;SDS011;7941;50.966;6.978;2022-10-24T08:19:32;5.00;;;1.60;;
15681;SDS011;7941;50.966;6.978;2022-10-24T08:21:58;4.07;;;1.47;;
15681;SDS011;7941;50.966;6.978;2022-10-24T08:24:25;6.47;;;1.80;;
15681;SDS011;7941;50.966;6.978;2022-10-24T08:26:51;5.97;;;1.43;;
15681;SDS011;7941;50.966;6.978;2022-10-24T08:29:19;9.77;;;1.97;;
15681;SDS011;7941;50.966;6.978;2022-10-24T08:31:50;6.40;;;2.30;;
15681;SDS011;7941;50.966;6.978;2022-10-24T08:34:17;2.40;;;1.20;;
15681;SDS011;7941;50.966;6.978;2022-10-24T08:36:44;5.07;;;1.53;;
15681;SDS011;7941;50.966;6.978;2022-10-24T08:39:10;8.20;;;2.00;;
15681;SDS011;7941;50.966;6.978;2022-10-24T08:44:12;6.70;;;1.50;;
15681;SDS011;7941;50.966;6.978;2022-10-24T08:51:57;11.33;;;2.47;;
15681;SDS011;7941;50.966;6.978;2022-10-24T08:54:27;6.73;;;2.13;;
15681;SDS011;7941;50.966;6.978;2022-10-24T08:56:55;11.07;;;2.07;;
15681;SDS011;7941;50.966;6.978;2022-10-24T08:59:24;6.60;;;1.80;;
15681;SDS011;7941;50.966;6.978;2022-10-24T09:04:32;4.67;;;1.70;;
15681;SDS011;7941;50.966;6.978;2022-10-24T09:06:59;4.77;;;1.70;;
15681;SDS011;7941;50.966;6.978;2022-10-24T09:12:07;4.00;;;1.73;;
15681;SDS011;7941;50.966;6.978;2022-10-24T09:14:36;6.47;;;2.00;;
15681;SDS011;7941;50.966;6.978;2022-10-24T09:17:18;4.73;;;1.53;;
15681;SDS011;7941;50.966;6.978;2022-10-24T09:19:48;6.30;;;1.90;;
15681;SDS011;7941;50.966;6.978;2022-10-24T09:22:16;5.50;;;1.87;;
15681;SDS011;7941;50.966;6.978;2022-10-24T09:24:47;7.93;;;1.80;;
15681;SDS011;7941;50.966;6.978;2022-10-24T09:27:26;5.90;;;1.80;;
15681;SDS011;7941;50.966;6.978;2022-10-24T09:29:53;5.80;;;1.60;;
15681;SDS011;7941;50.966;6.978;2022-10-24T09:32:20;7.30;;;2.10;;
15681;SDS011;7941;50.966;6.978;2022-10-24T09:34:47;6.80;;;2.50;;
15681;SDS011;7941;50.966;6.978;2022-10-24T09:40:40;5.03;;;1.70;;
15681;SDS011;7941;50.966;6.978;2022-10-24T09:42:46;8.20;;;1.70;;
15681;SDS011;7941;50.966;6.978;2022-10-24T09:45:59;8.53;;;2.73;;
15681;SDS011;7941;50.966;6.978;2022-10-24T09:50:49;8.40;;;1.90;;
15681;SDS011;7941;50.966;6.978;2022-10-24T09:53:21;6.10;;;1.80;;
15681;SDS011;7941;50.966;6.978;2022-10-24T09:55:50;7.10;;;1.90;;
15681;SDS011;7941;50.966;6.978;2022-10-24T09:58:17;9.03;;;2.20;;
15681;SDS011;7941;50.966;6.978;2022-10-24T10:00:44;6.63;;;2.03;;
15681;SDS011;7941;50.966;6.978;2022-10-24T10:03:21;5.67;;;2.20;;
15681;SDS011;7941;50.966;6.978;2022-10-24T10:05:48;7.03;;;2.57;;
15681;SDS011;7941;50.966;6.978;2022-10-24T10:08:18;5.63;;;2.00;;
15681;SDS011;7941;50.966;6.978;2022-10-24T10:10:53;6.07;;;1.77;;
15681;SDS011;7941;50.966;6.978;2022-10-24T10:13:20;8.57;;;1.93;;
15681;SDS011;7941;50.966;6.978;2022-10-24T10:16:01;6.63;;;2.57;;
15681;SDS011;7941;50.966;6.978;2022-10-24T10:23:40;6.43;;;1.43;;
15681;SDS011;7941;50.966;6.978;2022-10-24T10:28:41;6.60;;;2.00;;
15681;SDS011;7941;50.966;6.978;2022-10-24T10:31:08;4.90;;;1.40;;
15681;SDS011;7941;50.966;6.978;2022-10-24T10:33:37;7.40;;;1.60;;
15681;SDS011;7941;50.966;6.978;2022-10-24T10:36:10;6.37;;;1.80;;
15681;SDS011;7941;50.966;6.978;2022-10-24T10:41:18;9.33;;;1.77;;
15681;SDS011;7941;50.966;6.978;2022-10-24T10:43:53;4.50;;;1.87;;
15681;SDS011;7941;50.966;6.978;2022-10-24T10:51:46;8.93;;;1.80;;
15681;SDS011;7941;50.966;6.978;2022-10-24T11:01:56;5.33;;;1.80;;
15681;SDS011;7941;50.966;6.978;2022-10-24T11:09:32;7.57;;;2.00;;
15681;SDS011;7941;50.966;6.978;2022-10-24T11:12:04;6.13;;;2.30;;
15681;SDS011;7941;50.966;6.978;2022-10-24T11:14:40;6.00;;;1.60;;
15681;SDS011;7941;50.966;6.978;2022-10-24T11:17:12;4.73;;;1.80;;
15681;SDS011;7941;50.966;6.978;2022-10-24T11:19:40;5.23;;;1.67;;
15681;SDS011;7941;50.966;6.978;2022-10-24T11:22:13;4.77;;;1.43;;
15681;SDS011;7941;50.966;6.978;2022-10-24T11:24:44;5.73;;;1.67;;
15681;SDS011;7941;50.966;6.978;2022-10-24T11:27:12;4.27;;;2.00;;
15681;SDS011;7941;50.966;6.978;2022-10-24T11:34:41;4.73;;;1.53;;
15681;SDS011;7941;50.966;6.978;2022-10-24T11:39:51;3.93;;;1.57;;
15681;SDS011;7941;50.966;6.978;2022-10-24T11:55:48;8.13;;;2.27;;
15681;SDS011;7941;50.966;6.978;2022-10-24T11:58:18;4.97;;;2.17;;
15681;SDS011;7941;50.966;6.978;2022-10-24T12:11:21;6.00;;;1.80;;
15681;SDS011;7941;50.966;6.978;2022-10-24T12:19:19;6.90;;;1.80;;
15681;SDS011;7941;50.966;6.978;2022-10-24T12:21:53;5.87;;;1.60;;
15681;SDS011;7941;50.966;6.978;2022-10-24T12:27:05;6.37;;;1.70;;
15681;SDS011;7941;50.966;6.978;2022-10-24T12:29:32;6.77;;;1.87;;
15681;SDS011;7941;50.966;6.978;2022-10-24T12:32:20;8.50;;;1.70;;
15681;SDS011;7941;50.966;6.978;2022-10-24T12:34:55;6.43;;;1.70;;
15681;SDS011;7941;50.966;6.978;2022-10-24T12:39:49;7.53;;;2.23;;
15681;SDS011;7941;50.966;6.978;2022-10-24T12:44:46;7.37;;;2.43;;
15681;SDS011;7941;50.966;6.978;2022-10-24T12:57:56;9.90;;;2.10;;
15681;SDS011;7941;50.966;6.978;2022-10-24T13:00:29;6.93;;;2.50;;
15681;SDS011;7941;50.966;6.978;2022-10-24T13:03:18;6.00;;;2.13;;
15681;SDS011;7941;50.966;6.978;2022-10-24T13:16:24;8.67;;;2.20;;
15681;SDS011;7941;50.966;6.978;2022-10-24T13:21:52;10.23;;;2.43;;
15681;SDS011;7941;50.966;6.978;2022-10-24T13:36:46;6.07;;;2.17;;
15681;SDS011;7941;50.966;6.978;2022-10-24T13:39:16;7.60;;;2.47;;
15681;SDS011;7941;50.966;6.978;2022-10-24T13:41:44;4.87;;;1.97;;
15681;SDS011;7941;50.966;6.978;2022-10-24T13:47:30;7.07;;;2.20;;
15681;SDS011;7941;50.966;6.978;2022-10-24T13:49:32;7.27;;;1.97;;
15681;SDS011;7941;50.966;6.978;2022-10-24T13:52:01;7.43;;;2.57;;
15681;SDS011;7941;50.966;6.978;2022-10-24T13:54:32;8.07;;;2.40;;
15681;SDS011;7941;50.966;6.978;2022-10-24T13:57:00;8.07;;;2.20;;
15681;SDS011;7941;50.966;6.978;2022-10-24T13:59:33;6.83;;;2.30;;
15681;SDS011;7941;50.966;6.978;2022-10-24T14:02:05;5.17;;;2.30;;
15681;SDS011;7941;50.966;6.978;2022-10-24T14:04:33;5.10;;;1.93;;
15681;SDS011;7941;50.966;6.978;2022-10-24T14:07:01;5.73;;;2.10;;
15681;SDS011;7941;50.966;6.978;2022-10-24T14:09:28;4.63;;;1.90;;
15681;SDS011;7941;50.966;6.978;2022-10-24T14:11:54;4.47;;;1.63;;
15681;SDS011;7941;50.966;6.978;2022-10-24T14:17:03;6.03;;;1.90;;
15681;SDS011;7941;50.966;6.978;2022-10-24T14:19:30;5.80;;;1.97;;
15681;SDS011;7941;50.966;6.978;2022-10-24T14:21:57;6.13;;;1.90;;
15681;SDS011;7941;50.966;6.978;2022-10-24T14:24:24;14.10;;;2.23;;
15681;SDS011;7941;50.966;6.978;2022-10-24T14:26:50;7.90;;;1.90;;
15681;SDS011;7941;50.966;6.978;2022-10-24T14:29:22;5.37;;;1.83;;
15681;SDS011;7941;50.966;6.978;2022-10-24T14:31:57;5.90;;;1.97;;
15681;SDS011;7941;50.966;6.978;2022-10-24T14:34:23;6.63;;;2.13;;
15681;SDS011;7941;50.966;6.978;2022-10-24T14:36:50;8.20;;;2.27;;
15681;SDS011;7941;50.966;6.978;2022-10-24T14:39:17;6.23;;;1.70;;
15681;SDS011;7941;50.966;6.978;2022-10-24T14:41:48;4.23;;;1.73;;
15681;SDS011;7941;50.966;6.978;2022-10-24T14:44:15;5.00;;;1.53;;
15681;SDS011;7941;50.966;6.978;2022-10-24T14:46:42;6.20;;;1.97;;
15681;SDS011;7941;50.966;6.978;2022-10-24T14:51:59;5.53;;;1.77;;
15681;SDS011;7941;50.966;6.978;2022-10-24T14:54:28;4.17;;;1.63;;
15681;SDS011;7941;50.966;6.978;2022-10-24T14:56:55;4.40;;;2.10;;
15681;SDS011;7941;50.966;6.978;2022-10-24T14:59:27;6.63;;;1.87;;
15681;SDS011;7941;50.966;6.978;2022-10-24T15:02:02;6.97;;;2.17;;
15681;SDS011;7941;50.966;6.978;2022-10-24T15:04:30;5.03;;;1.73;;
15681;SDS011;7941;50.966;6.978;2022-10-24T15:06:57;7.87;;;2.57;;
15681;SDS011;7941;50.966;6.978;2022-10-24T15:09:23;4.93;;;2.13;;
15681;SDS011;7941;50.966;6.978;2022-10-24T15:11:59;6.77;;;1.90;;
15681;SDS011;7941;50.966;6.978;2022-10-24T15:14:37;5.97;;;1.90;;
15681;SDS011;7941;50.966;6.978;2022-10-24T15:19:43;9.10;;;2.77;;
15681;SDS011;7941;50.966;6.978;2022-10-24T15:24:56;3.93;;;1.63;;
15681;SDS011;7941;50.966;6.978;2022-10-24T15:27:28;6.20;;;1.57;;
15681;SDS011;7941;50.966;6.978;2022-10-24T15:29:54;4.93;;;1.87;;
15681;SDS011;7941;50.966;6.978;2022-10-24T15:32:20;8.50;;;1.93;;
15681;SDS011;7941;50.966;6.978;2022-10-24T15:34:46;4.87;;;1.47;;
15681;SDS011;7941;50.966;6.978;2022-10-24T15:37:15;4.73;;;2.43;;
15681;SDS011;7941;50.966;6.978;2022-10-24T15:39:42;4.37;;;1.83;;
15681;SDS011;7941;50.966;6.978;2022-10-24T15:42:09;5.57;;;2.07;;
15681;SDS011;7941;50.966;6.978;2022-10-24T15:44:36;10.53;;;2.87;;
15681;SDS011;7941;50.966;6.978;2022-10-24T15:47:02;5.30;;;1.87;;
15681;SDS011;7941;50.966;6.978;2022-10-24T15:49:29;5.90;;;1.70;;
15681;SDS011;7941;50.966;6.978;2022-10-24T15:51:55;4.40;;;1.70;;
15681;SDS011;7941;50.966;6.978;2022-10-24T15:54:25;7.07;;;2.30;;
15681;SDS011;7941;50.966;6.978;2022-10-24T15:56:53;6.30;;;2.10;;
15681;SDS011;7941;50.966;6.978;2022-10-24T15:59:19;7.03;;;2.23;;
15681;SDS011;7941;50.966;6.978;2022-10-24T16:01:52;8.97;;;1.83;;
15681;SDS011;7941;50.966;6.978;2022-10-24T16:04:18;8.87;;;1.97;;
15681;SDS011;7941;50.966;6.978;2022-10-24T16:06:45;6.70;;;2.00;;
15681;SDS011;7941;50.966;6.978;2022-10-24T16:09:13;7.87;;;2.47;;
15681;SDS011;7941;50.966;6.978;2022-10-24T16:11:39;7.70;;;2.70;;
15681;SDS011;7941;50.966;6.978;2022-10-24T16:14:05;7.03;;;2.30;;
15681;SDS011;7941;50.966;6.978;2022-10-24T16:16:32;8.97;;;1.90;;
15681;SDS011;7941;50.966;6.978;2022-10-24T16:18:58;9.23;;;2.33;;
15681;SDS011;7941;50.966;6.978;2022-10-24T16:21:24;10.90;;;2.63;;
15681;SDS011;7941;50.966;6.978;2022-10-24T16:23:50;9.63;;;3.77;;
15681;SDS011;7941;50.966;6.978;2022-10-24T16:26:17;10.20;;;2.70;;
15681;SDS011;7941;50.966;6.978;2022-10-24T16:28:44;7.67;;;2.53;;
15681;SDS011;7941;50.966;6.978;2022-10-24T16:31:10;7.33;;;2.27;;
15681;SDS011;7941;50.966;6.978;2022-10-24T16:33:36;8.23;;;2.90;;
15681;SDS011;7941;50.966;6.978;2022-10-24T16:36:02;7.97;;;2.23;;
15681;SDS011;7941;50.966;6.978;2022-10-24T16:38:29;9.57;;;2.50;;
15681;SDS011;7941;50.966;6.978;2022-10-24T16:40:55;7.07;;;2.30;;
15681;SDS011;7941;50.966;6.978;2022-10-24T16:43:22;7.57;;;2.13;;
15681;SDS011;7941;50.966;6.978;2022-10-24T16:45:55;7.00;;;2.10;;
15681;SDS011;7941;50.966;6.978;2022-10-24T16:48:21;7.73;;;2.20;;
15681;SDS011;7941;50.966;6.978;2022-10-24T16:50:48;7.47;;;2.50;;
15681;SDS011;7941;50.966;6.978;2022-10-24T16:53:14;7.70;;;2.47;;
15681;SDS011;7941;50.966;6.978;2022-10-24T16:55:46;7.50;;;2.20;;
15681;SDS011;7941;50.966;6.978;2022-10-24T16:58:13;7.87;;;3.00;;
15681;SDS011;7941;50.966;6.978;2022-10-24T17:00:39;8.50;;;2.33;;
15681;SDS011;7941;50.966;6.978;2022-10-24T17:03:05;10.23;;;2.00;;
15681;SDS011;7941;50.966;6.978;2022-10-24T17:05:32;8.10;;;2.37;;
15681;SDS011;7941;50.966;6.978;2022-10-24T17:07:58;7.37;;;2.20;;
15681;SDS011;7941;50.966;6.978;2022-10-24T17:10:24;11.60;;;3.30;;
15681;SDS011;7941;50.966;6.978;2022-10-24T17:12:51;9.73;;;2.77;;
15681;SDS011;7941;50.966;6.978;2022-10-24T17:15:18;11.40;;;2.60;;
15681;SDS011;7941;50.966;6.978;2022-10-24T17:17:45;10.63;;;3.03;;
15681;SDS011;7941;50.966;6.978;2022-10-24T17:20:11;9.03;;;2.40;;
15681;SDS011;7941;50.966;6.978;2022-10-24T17:22:40;8.30;;;2.67;;
15681;SDS011;7941;50.966;6.978;2022-10-24T17:25:10;7.70;;;2.57;;
15681;SDS011;7941;50.966;6.978;2022-10-24T17:27:37;7.40;;;2.50;;
15681;SDS011;7941;50.966;6.978;2022-10-24T17:30:03;5.63;;;2.60;;
15681;SDS011;7941;50.966;6.978;2022-10-24T17:32:30;8.60;;;2.57;;
15681;SDS011;7941;50.966;6.978;2022-10-24T17:34:58;12.23;;;2.73;;
15681;SDS011;7941;50.966;6.978;2022-10-24T17:40:17;8.80;;;2.73;;
15681;SDS011;7941;50.966;6.978;2022-10-24T17:42:43;6.83;;;2.67;;
15681;SDS011;7941;50.966;6.978;2022-10-24T17:45:16;9.53;;;2.30;;
15681;SDS011;7941;50.966;6.978;2022-10-24T17:47:43;12.03;;;3.80;;